Time;durP1;ratioP1;P1;durP2;ratioP2;P2;SDS_P1;SDS_P2;PMS_P1;PMS_P2;Temp;Humidity;BMP_temperature;BMP_pressure;BME280_temperature;BME280_humidity;BME280_pressure;Samples;Min_cycle;Max_cycle;Signal;HPM_P1;HPM_P2
2022/06/28 00:01:36;;;;;;;7.20;6.47;;;;;;;24.61;100.00;101154.47;5037168;28;20120;-71
2022/06/28 00:04:21;;;;;;;10.52;6.75;;;;;;;24.77;100.00;101150.63;5038000;28;20033;-70
2022/06/28 00:07:07;;;;;;;8.50;6.55;;;;;;;24.45;100.00;101157.31;5037207;28;20025;-71
2022/06/28 00:09:53;;;;;;;10.18;6.32;;;;;;;25.00;100.00;101157.06;5050522;28;20370;-70
2022/06/28 00:12:39;;;;;;;9.02;6.47;;;;;;;24.19;100.00;101152.81;5036861;28;20022;-70
2022/06/28 00:18:29;;;;;;;8.52;6.57;;;;;;;24.45;100.00;101151.94;5037376;28;20033;-71
2022/06/28 00:21:15;;;;;;;12.85;7.20;;;;;;;24.24;100.00;101144.50;5023157;28;20383;-71
2022/06/28 00:24:01;;;;;;;7.63;6.80;;;;;;;24.33;100.00;101141.19;5036252;28;20343;-70
2022/06/28 00:26:48;;;;;;;9.02;6.88;;;;;;;24.46;100.00;101136.72;5036560;28;20114;-70
2022/06/28 00:29:34;;;;;;;9.25;7.15;;;;;;;24.35;100.00;101133.91;5037479;28;20172;-71
2022/06/28 00:32:19;;;;;;;9.43;6.90;;;;;;;24.09;100.00;101129.44;5036225;28;20036;-70
2022/06/28 00:35:06;;;;;;;9.57;6.93;;;;;;;24.34;100.00;101130.38;5036263;28;20037;-71
2022/06/28 00:37:52;;;;;;;8.07;6.60;;;;;;;24.73;100.00;101125.00;5037878;28;20021;-70
2022/06/28 00:40:52;;;;;;;8.25;6.70;;;;;;;24.56;100.00;101132.44;5036905;28;20029;-71
2022/06/28 00:43:37;;;;;;;7.80;6.40;;;;;;;24.47;100.00;101123.22;5037142;28;20162;-71
2022/06/28 00:46:23;;;;;;;8.07;6.68;;;;;;;24.28;100.00;101130.81;5036501;28;20104;-71
2022/06/28 00:49:10;;;;;;;9.68;7.13;;;;;;;24.58;100.00;101119.78;5037174;28;20017;-71
2022/06/28 00:51:58;;;;;;;8.68;6.63;;;;;;;24.13;100.00;101128.28;5036648;28;20092;-70
2022/06/28 00:54:44;;;;;;;11.77;7.22;;;;;;;24.64;100.00;101131.00;5035759;28;20026;-71
2022/06/28 00:57:30;;;;;;;13.38;7.43;;;;;;;25.01;100.00;101126.59;5036584;28;20104;-71
2022/06/28 01:00:16;;;;;;;7.35;6.18;;;;;;;24.79;100.00;101129.94;5035932;28;20434;-72
2022/06/28 01:03:02;;;;;;;7.68;6.88;;;;;;;24.94;100.00;101131.53;5035805;28;20348;-70
2022/06/28 01:05:50;;;;;;;9.20;6.68;;;;;;;24.94;100.00;101136.91;5037880;28;20040;-72
2022/06/28 01:08:36;;;;;;;7.45;6.20;;;;;;;24.65;100.00;101131.84;5037295;28;20025;-70
2022/06/28 01:11:28;;;;;;;10.07;6.88;;;;;;;24.30;100.00;101138.75;5036127;28;20041;-70
2022/06/28 01:14:17;;;;;;;10.38;6.60;;;;;;;24.40;100.00;101138.00;5036479;28;20025;-70
2022/06/28 01:17:03;;;;;;;7.35;6.43;;;;;;;24.34;100.00;101141.09;5036911;28;20079;-70
2022/06/28 01:19:49;;;;;;;8.73;6.00;;;;;;;24.49;100.00;101137.38;5035949;28;20057;-71
2022/06/28 01:22:40;;;;;;;7.53;6.10;;;;;;;24.43;100.00;101144.97;5036358;28;20068;-69
2022/06/28 01:25:26;;;;;;;10.40;6.45;;;;;;;24.29;100.00;101134.31;5035319;28;20123;-71
2022/06/28 01:28:12;;;;;;;12.38;6.75;;;;;;;24.12;100.00;101134.59;5035627;28;20064;-71
2022/06/28 01:30:58;;;;;;;8.02;5.90;;;;;;;24.11;100.00;101141.75;5035402;28;20405;-69
2022/06/28 01:33:44;;;;;;;10.05;6.60;;;;;;;23.97;100.00;101138.28;5035435;28;20369;-71
2022/06/28 01:36:31;;;;;;;9.90;6.38;;;;;;;24.05;100.00;101134.16;5035610;28;20083;-70
2022/06/28 01:39:17;;;;;;;6.78;6.00;;;;;;;23.89;100.00;101140.56;5048697;28;20041;-70
2022/06/28 01:42:03;;;;;;;8.85;6.55;;;;;;;23.78;100.00;101141.28;5036175;28;20045;-69
2022/06/28 01:44:50;;;;;;;6.68;5.93;;;;;;;23.74;100.00;101136.25;5036157;28;20446;-72
2022/06/28 01:47:37;;;;;;;7.43;6.30;;;;;;;23.83;100.00;101131.13;5035403;28;20068;-73
2022/06/28 01:50:23;;;;;;;10.02;6.78;;;;;;;23.91;100.00;101125.28;5034736;28;20343;-70
2022/06/28 01:53:08;;;;;;;7.65;5.85;;;;;;;23.66;100.00;101134.03;5036129;28;20032;-71
2022/06/28 01:55:54;;;;;;;7.60;6.13;;;;;;;23.68;100.00;101128.59;5034620;28;20025;-70
2022/06/28 01:58:40;;;;;;;6.82;5.95;;;;;;;23.75;100.00;101137.94;5035772;28;20040;-72
2022/06/28 02:01:26;;;;;;;7.85;6.50;;;;;;;23.83;100.00;101143.66;5035489;28;20044;-71
2022/06/28 02:04:20;;;;;;;7.10;6.10;;;;;;;23.90;100.00;101142.31;5035517;28;20037;-71
2022/06/28 02:07:06;;;;;;;7.60;6.47;;;;;;;23.88;100.00;101133.50;5035070;28;20044;-70
2022/06/28 02:09:51;;;;;;;9.55;6.65;;;;;;;23.33;100.00;101129.06;5035311;28;20033;-71
2022/06/28 02:12:37;;;;;;;9.38;6.35;;;;;;;23.47;100.00;101127.31;5034896;28;20022;-69
2022/06/28 02:15:23;;;;;;;9.23;6.35;;;;;;;23.41;100.00;101133.91;5049754;28;20078;-70
2022/06/28 02:18:09;;;;;;;7.93;6.15;;;;;;;23.57;100.00;101137.31;5035037;28;20035;-70
2022/06/28 02:20:54;;;;;;;9.50;6.30;;;;;;;23.65;100.00;101147.50;5034437;28;20031;-70
2022/06/28 02:23:41;;;;;;;9.10;6.18;;;;;;;23.66;100.00;101134.03;5048776;28;20025;-71
2022/06/28 02:26:27;;;;;;;7.60;6.20;;;;;;;23.60;100.00;101136.25;5035543;28;20029;-71
2022/06/28 02:29:13;;;;;;;8.73;6.30;;;;;;;23.62;100.00;101139.72;5035823;28;20095;-71
2022/06/28 02:31:59;;;;;;;7.25;6.35;;;;;;;23.80;100.00;101142.06;5034190;28;20124;-71
2022/06/28 02:40:53;;;;;;;7.63;6.43;;;;;;;23.80;100.00;101144.72;5034751;28;20049;-70
2022/06/28 02:43:39;;;;;;;8.77;6.97;;;;;;;23.65;100.00;101151.06;5034858;28;20462;-70
2022/06/28 02:46:25;;;;;;;7.97;6.40;;;;;;;23.70;100.00;101156.13;5034098;28;20030;-71
2022/06/28 02:49:11;;;;;;;9.55;6.18;;;;;;;23.21;100.00;101159.25;5035142;28;20421;-70
2022/06/28 02:51:59;;;;;;;8.05;6.25;;;;;;;23.64;100.00;101167.22;5034086;28;20032;-70
2022/06/28 02:54:48;;;;;;;7.13;6.43;;;;;;;23.50;100.00;101164.56;5034245;28;20033;-71
2022/06/28 02:57:35;;;;;;;10.15;6.85;;;;;;;23.52;100.00;101167.03;5047939;28;20417;-70
2022/06/28 03:00:21;;;;;;;8.98;7.03;;;;;;;23.43;100.00;101166.78;5033977;28;20091;-70
2022/06/28 03:03:07;;;;;;;7.85;6.72;;;;;;;23.38;100.00;101172.41;5020637;28;20029;-70
2022/06/28 03:05:52;;;;;;;8.50;6.85;;;;;;;22.86;100.00;101171.19;5033277;28;20175;-70
2022/06/28 03:08:38;;;;;;;11.48;6.85;;;;;;;22.49;100.00;101176.16;5034700;28;20450;-71
2022/06/28 03:11:24;;;;;;;7.97;7.18;;;;;;;22.56;100.00;101185.53;5036668;28;20040;-70
2022/06/28 03:14:10;;;;;;;7.93;7.10;;;;;;;22.76;100.00;101175.41;5034913;28;20028;-71
2022/06/28 03:16:55;;;;;;;11.10;7.38;;;;;;;22.74;100.00;101177.28;5038344;28;20335;-71
2022/06/28 03:19:41;;;;;;;8.77;6.25;;;;;;;22.91;100.00;101169.09;5038584;28;20044;-70
2022/06/28 03:22:28;;;;;;;8.93;6.70;;;;;;;22.84;100.00;101169.59;5038111;28;20454;-70
2022/06/28 03:25:14;;;;;;;7.60;6.80;;;;;;;22.86;100.00;101168.53;5038175;28;20041;-70
2022/06/28 03:28:00;;;;;;;8.23;6.97;;;;;;;23.18;100.00;101169.22;5037775;28;20417;-71
2022/06/28 03:30:45;;;;;;;7.80;7.00;;;;;;;23.32;100.00;101171.94;5038411;28;20041;-70
2022/06/28 03:33:31;;;;;;;10.07;7.00;;;;;;;22.80;100.00;101176.94;5038788;28;20017;-70
2022/06/28 03:36:17;;;;;;;11.45;6.78;;;;;;;22.80;100.00;101178.72;5038063;28;20188;-70
2022/06/28 03:39:03;;;;;;;9.80;7.03;;;;;;;23.20;100.00;101176.22;5038760;28;20366;-71
2022/06/28 03:41:49;;;;;;;10.48;7.18;;;;;;;23.92;100.00;101173.41;5037427;28;20569;-71
2022/06/28 03:44:35;;;;;;;9.63;7.18;;;;;;;23.25;100.00;101179.47;5038267;28;20132;-71
2022/06/28 03:47:21;;;;;;;11.45;7.47;;;;;;;23.66;100.00;101176.00;5039251;28;20029;-71
2022/06/28 03:50:07;;;;;;;9.20;7.35;;;;;;;23.39;100.00;101175.94;5038200;28;20037;-72
2022/06/28 03:52:53;;;;;;;8.68;7.10;;;;;;;22.77;100.00;101177.13;5038301;28;20091;-70
2022/06/28 03:55:39;;;;;;;9.43;7.13;;;;;;;23.04;100.00;101169.22;5051137;28;20029;-70
2022/06/28 03:58:24;;;;;;;9.48;7.20;;;;;;;22.52;100.00;101173.31;5038314;28;20124;-71
2022/06/28 04:01:10;;;;;;;14.48;7.75;;;;;;;22.36;100.00;101168.00;5037961;28;20361;-71
2022/06/28 04:03:56;;;;;;;9.95;7.63;;;;;;;22.41;100.00;101170.38;5038294;28;20025;-71
2022/06/28 04:06:42;;;;;;;11.98;7.88;;;;;;;22.80;100.00;101165.38;5039292;28;20037;-72
2022/06/28 04:09:30;;;;;;;10.57;7.65;;;;;;;22.78;100.00;101181.50;5054550;28;20035;-72
2022/06/28 04:12:16;;;;;;;14.23;8.45;;;;;;;22.52;100.00;101166.19;5024210;28;20395;-70
2022/06/28 04:15:02;;;;;;;10.88;7.30;;;;;;;23.13;100.00;101174.88;5039484;28;20029;-70
2022/06/28 04:17:48;;;;;;;12.23;7.80;;;;;;;23.38;100.00;101179.56;5037991;28;20388;-70
2022/06/28 04:20:41;;;;;;;10.60;7.90;;;;;;;23.47;100.00;101170.97;5039192;28;20025;-70
2022/06/28 04:23:27;;;;;;;13.63;8.18;;;;;;;23.14;100.00;101173.03;5037764;28;20104;-71
2022/06/28 04:26:13;;;;;;;12.57;8.00;;;;;;;23.18;100.00;101170.09;5036987;28;20029;-70
2022/06/28 04:29:01;;;;;;;10.30;8.57;;;;;;;23.10;100.00;101175.03;5036841;28;20445;-70
2022/06/28 04:31:47;;;;;;;13.77;8.20;;;;;;;23.42;100.00;101180.25;5037531;28;20091;-71
2022/06/28 04:34:33;;;;;;;11.25;8.07;;;;;;;23.33;100.00;101185.22;5037755;28;20091;-70
2022/06/28 04:37:19;;;;;;;17.70;8.38;;;;;;;22.72;100.00;101192.56;5038081;28;20029;-72
2022/06/28 04:40:05;;;;;;;12.70;8.63;;;;;;;23.27;100.00;101184.75;5039716;28;20457;-72
2022/06/28 04:42:51;;;;;;;14.38;8.93;;;;;;;23.79;100.00;101182.28;5019055;28;20124;-71
2022/06/28 04:45:37;;;;;;;9.88;8.02;;;;;;;23.52;100.00;101184.91;5019339;28;20021;-72
2022/06/28 04:48:23;;;;;;;13.35;8.27;;;;;;;23.64;100.00;101186.81;5020362;28;20040;-72
2022/06/28 04:51:12;;;;;;;9.50;7.90;;;;;;;23.42;100.00;101191.78;5018950;28;20030;-70
2022/06/28 04:53:58;;;;;;;13.07;8.35;;;;;;;23.79;100.00;101190.31;5019044;28;20093;-73
2022/06/28 04:56:43;;;;;;;16.35;9.52;;;;;;;23.65;100.00;101199.22;5017079;28;20420;-72
2022/06/28 04:59:29;;;;;;;15.25;8.70;;;;;;;23.83;100.00;101199.88;5017858;28;20034;-72
2022/06/28 05:02:15;;;;;;;10.60;8.23;;;;;;;23.88;100.00;101211.13;5017232;28;20512;-72
2022/06/28 05:05:01;;;;;;;12.57;7.75;;;;;;;23.90;100.00;101203.88;5017546;28;20104;-73
2022/06/28 05:07:46;;;;;;;13.13;8.52;;;;;;;23.96;100.00;101198.16;5016010;28;20033;-73
2022/06/28 05:10:32;;;;;;;10.45;8.52;;;;;;;23.81;100.00;101199.97;5016843;28;20041;-73
2022/06/28 05:13:21;;;;;;;13.65;8.07;;;;;;;23.84;100.00;101196.22;5015697;28;20022;-72
2022/06/28 05:16:06;;;;;;;11.38;8.13;;;;;;;23.93;100.00;101191.16;5016521;28;20038;-72
2022/06/28 05:18:52;;;;;;;15.98;8.63;;;;;;;24.37;100.00;101197.16;5015949;28;20025;-74
2022/06/28 05:21:38;;;;;;;12.60;8.30;;;;;;;24.48;100.00;101199.97;5016766;28;20069;-74
2022/06/28 05:24:24;;;;;;;15.73;9.35;;;;;;;24.69;100.00;101198.53;5001630;28;20061;-73
2022/06/28 05:27:10;;;;;;;18.65;8.70;;;;;;;24.85;100.00;101204.56;5015709;28;20025;-73
2022/06/28 05:29:56;;;;;;;12.15;8.13;;;;;;;24.93;100.00;101204.91;5017124;28;20021;-72
2022/06/28 05:32:42;;;;;;;12.35;8.30;;;;;;;24.95;100.00;101215.53;5017468;28;20042;-74
2022/06/28 05:35:27;;;;;;;12.68;8.40;;;;;;;24.95;100.00;101215.53;5014786;28;20029;-74
2022/06/28 05:38:13;;;;;;;10.20;8.48;;;;;;;24.52;100.00;101222.03;5015936;28;20045;-72
2022/06/28 05:40:59;;;;;;;12.82;8.70;;;;;;;24.40;100.00;101221.06;5022024;28;20370;-73
2022/06/28 05:43:45;;;;;;;9.23;7.97;;;;;;;24.34;100.00;101224.13;5037053;28;20036;-73
2022/06/28 05:46:32;;;;;;;10.55;8.45;;;;;;;24.44;100.00;101219.88;5035487;28;20021;-74
2022/06/28 05:49:18;;;;;;;11.57;8.40;;;;;;;24.73;100.00;101221.50;5036612;28;20037;-73
2022/06/28 05:52:08;;;;;;;10.75;8.20;;;;;;;25.30;100.00;101227.34;5035825;28;20460;-73
2022/06/28 05:54:57;;;;;;;8.85;7.95;;;;;;;26.12;100.00;101224.00;5036499;28;20462;-74
2022/06/28 05:57:45;;;;;;;9.25;7.55;;;;;;;26.45;100.00;101228.72;5035976;28;20123;-73
2022/06/28 06:00:33;;;;;;;9.27;8.27;;;;;;;26.41;100.00;101219.19;5036053;28;20060;-74
2022/06/28 06:03:19;;;;;;;11.70;7.90;;;;;;;25.76;100.00;101232.03;5035408;28;20439;-74
2022/06/28 06:06:08;;;;;;;13.82;8.55;;;;;;;26.14;100.00;101221.22;5036456;28;20314;-74
2022/06/28 06:08:54;;;;;;;12.57;8.65;;;;;;;26.13;100.00;101231.13;5035967;28;20021;-74
2022/06/28 06:11:39;;;;;;;12.25;8.63;;;;;;;26.18;100.00;101228.94;5035018;28;20028;-73
2022/06/28 06:14:28;;;;;;;17.48;9.35;;;;;;;25.44;100.00;101232.63;5034630;28;20032;-73
2022/06/28 06:17:14;;;;;;;22.63;8.82;;;;;;;25.65;100.00;101236.47;5035814;28;20025;-74
2022/06/28 06:20:02;;;;;;;15.02;8.85;;;;;;;25.97;100.00;101241.28;5021311;28;20069;-75
2022/06/28 06:22:48;;;;;;;16.75;8.80;;;;;;;26.51;100.00;101242.56;5035331;28;20030;-73
2022/06/28 06:25:34;;;;;;;14.80;8.95;;;;;;;26.39;100.00;101239.91;5035789;28;20112;-73
2022/06/28 06:28:20;;;;;;;16.05;8.45;;;;;;;26.50;100.00;101246.22;5035579;28;20478;-73
2022/06/28 06:31:07;;;;;;;17.42;9.48;;;;;;;26.72;100.00;101243.66;5034677;28;20033;-74
2022/06/28 06:33:53;;;;;;;12.57;8.73;;;;;;;27.09;100.00;101241.69;5048408;28;20029;-73
2022/06/28 06:36:39;;;;;;;20.38;9.63;;;;;;;27.42;100.00;101244.47;5035160;28;20025;-73
2022/06/28 06:39:25;;;;;;;12.10;8.43;;;;;;;27.90;100.00;101250.50;5035640;28;20032;-73
2022/06/28 06:42:11;;;;;;;12.18;9.32;;;;;;;27.86;100.00;101252.59;5033507;28;20115;-74
2022/06/28 06:44:58;;;;;;;11.75;8.27;;;;;;;27.82;100.00;101256.50;5035519;28;20116;-73
2022/06/28 06:47:44;;;;;;;13.85;8.82;;;;;;;27.76;100.00;101256.09;5048462;28;20446;-74
2022/06/28 06:50:30;;;;;;;14.90;8.20;;;;;;;27.96;100.00;101258.94;5035092;28;20040;-74
2022/06/28 06:53:16;;;;;;;10.80;7.45;;;;;;;27.96;100.00;101258.09;5049399;28;20028;-73
2022/06/28 06:56:02;;;;;;;16.63;8.05;;;;;;;28.14;100.00;101256.56;5035458;28;20036;-73
2022/06/28 06:58:47;;;;;;;9.63;7.53;;;;;;;27.10;100.00;101249.66;5034871;28;20087;-74
2022/06/28 07:01:34;;;;;;;9.45;7.97;;;;;;;27.55;100.00;101247.91;5048019;28;20033;-74
2022/06/28 07:04:20;;;;;;;11.18;7.13;;;;;;;28.21;100.00;101245.16;5034784;28;20040;-74
2022/06/28 07:07:06;;;;;;;32.08;24.92;;;;;;;28.25;100.00;101232.31;5034185;28;20029;-73
2022/06/28 07:09:52;;;;;;;14.15;7.82;;;;;;;27.69;100.00;101233.34;5034032;28;20102;-73
2022/06/28 07:12:37;;;;;;;14.60;8.00;;;;;;;28.06;100.00;101232.09;5034342;28;20030;-74
2022/06/28 07:15:23;;;;;;;10.80;6.93;;;;;;;27.76;100.00;101237.25;5034884;28;20029;-74
2022/06/28 07:18:09;;;;;;;13.57;7.53;;;;;;;27.96;100.00;101231.97;5034954;28;20489;-74
2022/06/28 07:20:55;;;;;;;13.88;7.57;;;;;;;27.39;100.00;101232.13;5047950;28;20560;-74
2022/06/28 07:23:42;;;;;;;8.38;7.00;;;;;;;28.17;100.00;101235.66;5032975;28;20017;-74
2022/06/28 07:26:28;;;;;;;10.70;7.85;;;;;;;27.52;100.00;101236.53;5020583;28;20045;-73
2022/06/28 07:29:14;;;;;;;12.52;7.25;;;;;;;27.35;100.00;101236.03;5034101;28;20029;-74
2022/06/28 07:32:00;;;;;;;9.45;8.07;;;;;;;27.07;100.00;101249.00;5034316;28;20374;-74
2022/06/28 07:34:46;;;;;;;10.63;8.65;;;;;;;27.24;100.00;101254.84;5035661;28;20060;-74
2022/06/28 07:37:32;;;;;;;15.18;9.27;;;;;;;27.45;100.00;101252.31;5034939;28;20108;-73
2022/06/28 07:40:18;;;;;;;12.52;8.70;;;;;;;27.42;100.00;101255.22;5034946;28;20025;-73
2022/06/28 07:43:03;;;;;;;11.80;7.47;;;;;;;27.77;100.00;101261.38;5035487;28;20048;-73
2022/06/28 07:45:49;;;;;;;14.25;7.70;;;;;;;27.89;100.00;101264.94;5035916;28;20029;-74
2022/06/28 07:48:35;;;;;;;12.05;8.55;;;;;;;27.22;100.00;101270.25;5034497;28;20061;-74
2022/06/28 07:54:26;;;;;;;15.57;8.65;;;;;;;27.93;100.00;101275.34;5034518;28;20029;-73
2022/06/28 07:57:11;;;;;;;19.05;8.93;;;;;;;27.81;100.00;101275.44;5034472;28;20447;-74
2022/06/28 07:59:57;;;;;;;20.30;8.88;;;;;;;27.88;100.00;101276.72;5038243;28;20029;-74
2022/06/28 08:02:58;;;;;;;14.98;10.13;;;;;;;27.62;100.00;101265.28;5048052;28;20057;-74
2022/06/28 08:05:44;;;;;;;13.52;8.68;;;;;;;27.46;100.00;101275.56;5032309;28;20018;-75
2022/06/28 08:08:30;;;;;;;13.70;8.75;;;;;;;27.51;100.00;101278.72;5047212;28;20080;-74
2022/06/28 08:11:15;;;;;;;16.02;8.38;;;;;;;27.77;100.00;101269.47;5047899;28;20029;-72
2022/06/28 08:14:01;;;;;;;12.50;8.38;;;;;;;28.14;100.00;101279.00;5052312;28;20021;-73
2022/06/28 08:16:47;;;;;;;13.35;9.05;;;;;;;27.92;100.00;101273.63;5055681;28;20040;-73
2022/06/28 08:19:34;;;;;;;13.32;8.13;;;;;;;27.94;100.00;101271.69;5066415;28;20076;-74
2022/06/28 08:22:20;;;;;;;18.67;9.27;;;;;;;27.68;100.00;101270.16;5048803;28;20108;-73
2022/06/28 08:25:06;;;;;;;14.18;9.88;;;;;;;27.61;100.00;101268.97;5048346;28;20053;-74
2022/06/28 08:27:52;;;;;;;16.85;9.27;;;;;;;28.18;100.00;101263.44;5048715;28;20029;-73
2022/06/28 08:30:39;;;;;;;14.75;8.43;;;;;;;28.25;100.00;101261.94;5047365;28;20017;-74
2022/06/28 08:33:31;;;;;;;12.48;9.10;;;;;;;28.24;100.00;101263.78;5041856;28;20034;-74
2022/06/28 08:36:18;;;;;;;16.58;10.23;;;;;;;27.82;100.00;101261.88;5040741;28;20057;-74
2022/06/28 08:39:07;;;;;;;13.13;9.57;;;;;;;28.04;100.00;101269.94;5038892;28;20043;-72
2022/06/28 08:41:54;;;;;;;19.35;13.45;;;;;;;27.80;100.00;101261.09;5037427;28;20576;-74
2022/06/28 08:44:40;;;;;;;26.08;21.42;;;;;;;28.15;100.00;101269.06;5037600;28;20038;-74
2022/06/28 08:47:32;;;;;;;16.63;8.70;;;;;;;28.19;100.00;101276.78;5037205;28;20505;-73
2022/06/28 08:50:30;;;;;;;12.50;8.07;;;;;;;28.14;100.00;101272.75;5036552;28;20076;-73
2022/06/28 08:53:19;;;;;;;13.70;8.98;;;;;;;28.65;100.00;101271.19;5036952;28;20021;-73
2022/06/28 08:56:08;;;;;;;14.38;9.70;;;;;;;28.25;100.00;101278.13;5035980;28;20091;-74
2022/06/28 08:58:56;;;;;;;19.60;10.98;;;;;;;28.10;100.00;101277.53;5036471;28;20029;-73
2022/06/28 09:01:42;;;;;;;23.23;10.27;;;;;;;27.83;100.00;101268.97;5035986;28;20178;-73
2022/06/28 09:05:12;;;;;;;15.75;10.50;;;;;;;27.51;100.00;101267.97;5067412;23;20075;-73
2022/06/28 09:07:58;;;;;;;19.70;10.95;;;;;;;27.34;100.00;101272.00;5075912;28;20028;-73
2022/06/28 09:10:44;;;;;;;16.08;10.32;;;;;;;27.42;100.00;101260.63;5075929;28;20437;-73
2022/06/28 09:13:29;;;;;;;23.48;10.88;;;;;;;27.78;100.00;101259.53;5074583;28;20040;-73
2022/06/28 09:16:15;;;;;;;18.45;11.30;;;;;;;27.65;100.00;101248.91;5075231;28;20021;-74
2022/06/28 09:19:01;;;;;;;20.27;10.60;;;;;;;27.20;100.00;101241.72;5060335;28;20346;-73
2022/06/28 09:21:47;;;;;;;15.25;10.18;;;;;;;27.50;100.00;101242.03;5061072;28;20090;-73
2022/06/28 09:24:34;;;;;;;19.88;10.35;;;;;;;27.81;100.00;101245.81;5074901;28;20090;-74
2022/06/28 09:27:32;;;;;;;13.68;9.25;;;;;;;27.48;100.00;101254.72;5062099;28;20031;-78
2022/06/28 09:30:21;;;;;;;16.60;10.20;;;;;;;27.54;100.00;101246.19;5075338;28;20033;-76
2022/06/28 09:33:24;;;;;;;21.38;11.18;;;;;;;27.82;100.00;101243.03;5060745;28;20035;-76
2022/06/28 09:36:12;;;;;;;17.33;13.23;;;;;;;27.61;100.00;101243.88;5075750;28;20028;-75
2022/06/28 09:39:10;;;;;;;12.40;8.27;;;;;;;27.62;100.00;101251.81;5074902;28;20104;-76
2022/06/28 09:41:57;;;;;;;13.90;8.75;;;;;;;27.66;100.00;101260.50;5075561;28;20036;-75
2022/06/28 09:44:51;;;;;;;10.85;8.00;;;;;;;27.89;100.00;101259.56;5075292;28;20028;-76
2022/06/28 09:47:43;;;;;;;15.25;7.47;;;;;;;27.55;100.00;101257.81;5076647;28;20024;-76
2022/06/28 09:50:31;;;;;;;13.35;8.18;;;;;;;26.97;100.00;101251.53;5059949;28;20021;-77
2022/06/28 09:53:20;;;;;;;13.65;8.10;;;;;;;26.44;100.00;101257.41;5074607;28;20020;-76
2022/06/28 09:56:06;;;;;;;12.70;7.40;;;;;;;26.24;100.00;101262.56;5059811;28;20021;-76
2022/06/28 09:58:52;;;;;;;14.15;7.80;;;;;;;26.13;100.00;101263.34;5074330;28;20033;-76
2022/06/28 10:01:39;;;;;;;11.25;8.10;;;;;;;26.32;100.00;101254.81;5073894;28;20024;-77
2022/06/28 10:04:27;;;;;;;15.00;8.35;;;;;;;26.06;100.00;101258.53;5074193;28;20478;-77
2022/06/28 10:07:13;;;;;;;15.15;8.45;;;;;;;26.23;100.00;101259.00;5058956;28;20413;-75
2022/06/28 10:10:00;;;;;;;12.10;8.82;;;;;;;26.00;100.00;101253.63;5059691;28;20071;-76
2022/06/28 10:16:01;;;;;;;13.25;8.85;;;;;;;26.09;100.00;101258.31;5073737;28;20048;-76
2022/06/28 10:18:48;;;;;;;14.68;9.55;;;;;;;26.20;100.00;101259.22;5074343;28;20032;-76
2022/06/28 10:21:44;;;;;;;16.50;9.05;;;;;;;26.09;100.00;101255.63;5074334;28;20413;-76
2022/06/28 10:24:56;;;;;;;15.07;8.25;;;;;;;25.91;100.00;101252.41;5073581;28;20035;-76
2022/06/28 10:27:48;;;;;;;11.88;8.30;;;;;;;26.15;100.00;101239.91;5074304;28;20029;-76
2022/06/28 10:30:34;;;;;;;9.77;7.88;;;;;;;26.33;100.00;101238.53;5059200;28;20090;-76
2022/06/28 10:33:40;;;;;;;12.65;7.85;;;;;;;26.05;100.00;101246.94;5074652;28;20021;-76
2022/06/28 10:36:31;;;;;;;16.42;11.95;;;;;;;26.14;100.00;101242.72;5045447;28;20032;-75
2022/06/28 10:39:29;;;;;;;11.63;8.35;;;;;;;25.92;100.00;101239.84;5074829;28;20025;-76
2022/06/28 10:42:15;;;;;;;11.88;7.75;;;;;;;25.62;100.00;101242.03;5073536;28;20039;-76
2022/06/28 10:45:02;;;;;;;17.95;11.05;;;;;;;25.66;100.00;101240.84;5073814;28;20052;-76
2022/06/28 10:48:11;;;;;;;13.45;9.18;;;;;;;25.88;100.00;101231.16;5073322;28;20039;-78
2022/06/28 10:50:59;;;;;;;11.68;8.73;;;;;;;25.97;100.00;101229.66;5073867;28;20398;-73
2022/06/28 10:54:06;;;;;;;13.02;8.52;;;;;;;26.23;100.00;101220.53;5073588;28;20066;-72
2022/06/28 10:56:52;;;;;;;13.82;8.73;;;;;;;26.19;100.00;101219.91;5073811;28;20024;-70
2022/06/28 10:59:38;;;;;;;12.60;8.30;;;;;;;26.68;100.00;101207.22;5073749;28;20021;-70
2022/06/28 11:02:45;;;;;;;11.30;8.32;;;;;;;26.79;100.00;101204.56;5072932;28;20028;-70
2022/06/28 11:06:06;;;;;;;34.25;22.13;;;;;;;26.69;100.00;101205.41;5073413;28;20055;-70
2022/06/28 11:08:58;;;;;;;10.45;8.10;;;;;;;26.28;100.00;101208.47;5043575;28;20106;-71
2022/06/28 11:12:08;;;;;;;13.45;7.57;;;;;;;26.48;100.00;101209.69;5074246;28;20021;-69
2022/06/28 11:15:03;;;;;;;13.98;7.97;;;;;;;26.50;100.00;101203.22;5072621;28;20472;-71
2022/06/28 11:17:49;;;;;;;12.35;7.55;;;;;;;26.60;100.00;101206.09;5073564;28;20123;-71
2022/06/28 11:20:35;;;;;;;11.00;7.18;;;;;;;26.69;100.00;101214.28;5058445;28;20043;-73
2022/06/28 11:23:25;;;;;;;13.43;8.57;;;;;;;26.38;100.00;101204.13;5074758;28;20044;-72
2022/06/28 11:29:19;;;;;;;10.10;7.53;;;;;;;26.93;100.00;101198.97;5075603;28;20038;-72
2022/06/28 11:32:16;;;;;;;15.15;7.38;;;;;;;26.58;100.00;101210.72;5059638;28;20089;-69
2022/06/28 11:35:03;;;;;;;12.80;8.10;;;;;;;26.88;100.00;101198.47;5072926;28;20025;-70
2022/06/28 11:38:05;;;;;;;11.82;7.93;;;;;;;27.19;100.00;101205.00;5062537;28;20101;-69
2022/06/28 11:40:51;;;;;;;8.43;6.68;;;;;;;27.01;100.00;101204.59;5062374;28;20043;-70
2022/06/28 11:43:37;;;;;;;10.40;7.38;;;;;;;27.04;100.00;101195.44;5063167;28;20038;-70
2022/06/28 11:46:25;;;;;;;13.48;7.97;;;;;;;26.98;100.00;101187.88;5077287;28;20089;-69
2022/06/28 11:49:11;;;;;;;10.25;7.30;;;;;;;26.98;100.00;101182.47;5076616;28;20032;-70
2022/06/28 11:51:57;;;;;;;9.80;7.45;;;;;;;27.20;100.00;101175.31;5077023;28;20120;-69
2022/06/28 11:54:45;;;;;;;14.15;6.75;;;;;;;27.36;100.00;101166.88;5076287;28;20070;-69
2022/06/28 11:57:31;;;;;;;10.95;6.55;;;;;;;27.64;100.00;101168.22;5077456;28;20028;-69
2022/06/28 12:00:17;;;;;;;9.77;6.63;;;;;;;27.33;100.00;101170.69;5061144;28;20031;-70
2022/06/28 12:03:05;;;;;;;7.97;6.10;;;;;;;27.89;100.00;101168.84;5075822;28;20029;-70
2022/06/28 12:05:57;;;;;;;8.35;6.10;;;;;;;27.73;100.00;101178.25;5061148;28;20036;-71
2022/06/28 12:08:58;;;;;;;8.15;5.63;;;;;;;27.92;100.00;101173.94;5061100;28;20028;-70
2022/06/28 12:11:56;;;;;;;13.80;12.25;;;;;;;27.57;100.00;101175.94;5061380;28;20043;-69
2022/06/28 12:14:42;;;;;;;8.68;5.82;;;;;;;27.74;100.00;101171.88;5062758;28;20024;-70
2022/06/28 12:17:28;;;;;;;6.50;4.95;;;;;;;28.04;100.00;101166.72;5076741;28;20020;-69
2022/06/28 12:20:15;;;;;;;12.07;6.15;;;;;;;28.06;100.00;101164.72;5075758;28;20069;-69
2022/06/28 12:23:05;;;;;;;9.45;6.03;;;;;;;27.91;100.00;101166.00;5076406;28;20117;-70
2022/06/28 12:26:00;;;;;;;8.80;5.20;;;;;;;28.13;100.00;101156.03;5075979;28;20032;-70
2022/06/28 12:28:47;;;;;;;9.90;5.70;;;;;;;27.73;100.00;101164.78;5075902;28;20086;-70
2022/06/28 12:31:33;;;;;;;10.45;5.38;;;;;;;27.80;100.00;101161.44;5075869;28;20025;-70
2022/06/28 12:34:19;;;;;;;7.15;5.22;;;;;;;28.31;100.00;101151.78;5061403;28;20048;-71
2022/06/28 12:37:09;;;;;;;7.72;4.97;;;;;;;28.00;100.00;101147.22;5075893;28;20040;-69
2022/06/28 12:39:55;;;;;;;6.65;4.95;;;;;;;28.20;100.00;101142.91;5075840;28;20437;-71
2022/06/28 12:42:41;;;;;;;7.68;4.85;;;;;;;28.28;100.00;101141.25;5076231;28;20028;-71
2022/06/28 12:45:32;;;;;;;8.73;5.13;;;;;;;28.20;100.00;101137.50;5062949;28;20519;-71
2022/06/28 12:48:32;;;;;;;10.48;5.20;;;;;;;28.14;100.00;101140.69;5076796;28;20062;-71
2022/06/28 12:52:09;;;;;;;17.80;5.28;;;;;;;28.26;100.00;101134.28;5061709;28;20025;-71
2022/06/28 12:54:58;;;;;;;8.77;4.95;;;;;;;28.25;100.00;101137.97;5061043;28;20028;-72
2022/06/28 12:57:44;;;;;;;11.35;5.05;;;;;;;28.59;100.00;101140.41;5075437;28;20107;-69
2022/06/28 13:00:30;;;;;;;10.43;4.85;;;;;;;28.86;100.00;101137.16;5075699;28;20475;-70
2022/06/28 13:03:16;;;;;;;8.80;4.35;;;;;;;28.20;100.00;101138.34;5075033;28;20076;-70
2022/06/28 13:06:02;;;;;;;7.00;4.50;;;;;;;28.61;100.00;101137.56;5075972;28;20371;-70